createdAt,value
2022-10-05T00:03:11.820Z,9.57
2022-10-05T00:07:19.439Z,6.50
2022-10-05T00:11:21.513Z,6.63
2022-10-05T00:15:23.626Z,8.73
2022-10-05T00:19:36.701Z,7.25
2022-10-05T00:23:40.746Z,6.78
2022-10-05T00:27:45.849Z,9.60
2022-10-05T00:31:48.473Z,8.73
2022-10-05T00:35:50.682Z,6.22
2022-10-05T00:39:52.709Z,7.85
2022-10-05T00:44:05.538Z,9.55
2022-10-05T00:48:39.754Z,9.15
2022-10-05T00:53:26.596Z,14.90
2022-10-05T00:57:43.924Z,12.20
2022-10-05T01:02:12.394Z,10.90
2022-10-05T01:06:44.097Z,11.27
2022-10-05T01:11:04.001Z,11.45
2022-10-05T01:15:43.607Z,8.95
2022-10-05T01:20:36.424Z,8.55
2022-10-05T01:24:44.404Z,11.73
2022-10-05T01:28:52.393Z,12.85
2022-10-05T01:33:25.665Z,10.45
2022-10-05T01:37:58.161Z,7.25
2022-10-05T01:42:50.002Z,8.13
2022-10-05T01:47:03.096Z,9.25
2022-10-05T01:51:16.565Z,7.25
2022-10-05T01:55:45.081Z,6.03
2022-10-05T01:59:53.110Z,6.03
2022-10-05T02:04:10.564Z,9.43
2022-10-05T02:08:24.173Z,5.95
2022-10-05T02:12:30.723Z,6.80
2022-10-05T02:16:40.382Z,5.93
2022-10-05T02:20:45.580Z,9.60
2022-10-05T02:24:53.001Z,6.65
2022-10-05T02:28:59.922Z,8.55
2022-10-05T02:33:10.435Z,11.32
2022-10-05T02:37:43.374Z,12.18
2022-10-05T02:42:13.523Z,11.48
2022-10-05T02:46:40.991Z,13.95
2022-10-05T02:51:04.701Z,12.73
2022-10-05T02:55:19.486Z,14.18
2022-10-05T02:59:47.312Z,13.30
2022-10-05T03:04:01.236Z,11.25
2022-10-05T03:08:15.335Z,16.35
2022-10-05T03:12:42.074Z,14.80
2022-10-05T03:17:19.066Z,13.18
2022-10-05T03:21:33.149Z,15.38
2022-10-05T03:25:55.791Z,14.40
2022-10-05T03:30:18.117Z,13.98
2022-10-05T03:34:40.000Z,14.40
2022-10-05T03:39:04.413Z,15.02
2022-10-05T03:43:41.096Z,13.88
2022-10-05T03:47:56.640Z,14.40
2022-10-05T03:52:16.118Z,12.50
2022-10-05T03:56:31.963Z,13.55
2022-10-05T04:00:36.810Z,13.82
2022-10-05T04:04:46.281Z,13.70
2022-10-05T04:09:07.505Z,12.85
2022-10-05T04:13:09.805Z,15.65
2022-10-05T04:17:17.536Z,13.18
2022-10-05T04:21:24.956Z,16.35
2022-10-05T04:25:39.463Z,13.93
2022-10-05T04:29:57.350Z,13.65
2022-10-05T04:34:12.167Z,13.88
2022-10-05T04:38:37.257Z,13.38
2022-10-05T04:42:47.733Z,14.93
2022-10-05T04:47:12.163Z,13.38
2022-10-05T04:51:22.083Z,12.45
2022-10-05T04:55:33.544Z,14.73
2022-10-05T04:59:54.672Z,11.98
2022-10-05T05:04:04.324Z,11.43
2022-10-05T05:08:33.449Z,15.45
2022-10-05T05:13:06.211Z,13.15
2022-10-05T05:17:14.770Z,13.93
2022-10-05T05:21:34.428Z,14.15
2022-10-05T05:25:42.481Z,14.95
2022-10-05T05:30:02.796Z,15.45
2022-10-05T05:34:31.889Z,14.60
2022-10-05T05:39:11.415Z,13.48
2022-10-05T05:43:26.584Z,13.07
2022-10-05T05:47:35.328Z,15.57
2022-10-05T05:51:45.827Z,12.73
2022-10-05T05:55:53.727Z,15.00
2022-10-05T06:00:30.023Z,12.95
2022-10-05T06:04:45.076Z,12.68
2022-10-05T06:08:57.480Z,11.60
2022-10-05T06:13:35.769Z,11.43
2022-10-05T06:17:44.940Z,11.45
2022-10-05T06:22:05.831Z,11.13
2022-10-05T06:26:12.839Z,14.25
2022-10-05T06:30:17.500Z,11.63
2022-10-05T06:35:02.374Z,10.80
2022-10-05T06:39:15.234Z,9.90
2022-10-05T06:43:34.822Z,11.40
2022-10-05T06:47:59.423Z,13.43
2022-10-05T06:52:39.982Z,11.90
2022-10-05T06:56:52.364Z,12.45
2022-10-05T07:01:20.648Z,12.70
2022-10-05T07:05:33.949Z,9.07
2022-10-05T07:09:41.940Z,9.18
2022-10-05T07:14:21.820Z,11.25
2022-10-05T07:18:47.997Z,6.53
2022-10-05T07:22:55.541Z,5.88
2022-10-05T07:27:20.990Z,6.25
2022-10-05T07:31:37.891Z,5.20
2022-10-05T07:36:31.154Z,6.57
2022-10-05T07:40:41.840Z,5.07
2022-10-05T07:45:04.094Z,5.15
2022-10-05T07:49:06.247Z,7.72
2022-10-05T07:53:19.708Z,7.50
2022-10-05T07:57:40.445Z,8.02
2022-10-05T08:01:48.371Z,8.02
2022-10-05T08:05:51.118Z,7.47
2022-10-05T08:10:28.908Z,7.65
2022-10-05T08:14:46.314Z,7.20
2022-10-05T08:19:06.696Z,7.45
2022-10-05T08:23:38.658Z,8.57
2022-10-05T08:27:56.951Z,9.85
2022-10-05T08:32:03.615Z,9.48
2022-10-05T08:36:11.526Z,10.93
2022-10-05T08:40:21.407Z,11.93
2022-10-05T08:44:55.944Z,13.35
2022-10-05T08:49:23.981Z,11.73
2022-10-05T08:58:13.268Z,10.25
2022-10-05T09:02:34.079Z,10.88
2022-10-05T09:07:01.356Z,7.85
2022-10-05T09:11:35.859Z,8.43
2022-10-05T09:16:08.890Z,7.55
2022-10-05T09:20:37.961Z,7.45
2022-10-05T09:24:57.980Z,8.35
2022-10-05T09:29:21.256Z,8.38
2022-10-05T09:33:40.872Z,8.80
2022-10-05T09:38:03.123Z,11.68
2022-10-05T09:42:31.319Z,8.93
2022-10-05T09:47:01.982Z,10.90
2022-10-05T09:51:35.157Z,12.15
2022-10-05T09:55:46.454Z,10.52
2022-10-05T10:00:10.364Z,12.50
2022-10-05T10:04:15.300Z,9.93
2022-10-05T10:08:26.665Z,10.95
2022-10-05T10:12:53.513Z,10.52
2022-10-05T10:17:13.786Z,10.85
2022-10-05T10:21:42.257Z,8.73
2022-10-05T10:26:36.349Z,8.93
2022-10-05T10:31:15.794Z,9.88
2022-10-05T10:35:40.805Z,7.63
2022-10-05T10:39:58.002Z,7.47
2022-10-05T10:44:26.706Z,6.50
2022-10-05T10:48:28.660Z,3.38
2022-10-05T10:53:10.671Z,4.45
2022-10-05T10:57:40.609Z,3.95
2022-10-05T11:02:03.847Z,3.95
2022-10-05T11:06:07.499Z,3.28
2022-10-05T11:10:23.325Z,4.68
2022-10-05T11:14:34.324Z,3.97
2022-10-05T11:18:48.858Z,3.30
2022-10-05T11:23:14.325Z,4.15
2022-10-05T11:27:34.994Z,3.60
2022-10-05T11:32:15.831Z,3.88
2022-10-05T11:36:54.710Z,4.30
2022-10-05T11:41:33.001Z,4.78
2022-10-05T11:50:34.500Z,3.50
2022-10-05T11:55:09.153Z,5.40
2022-10-05T11:59:15.812Z,4.43
2022-10-05T12:03:39.258Z,4.43
2022-10-05T12:08:01.927Z,4.95
2022-10-05T12:12:29.567Z,4.45
2022-10-05T12:16:41.804Z,6.72
2022-10-05T12:20:55.808Z,4.63
2022-10-05T12:25:03.889Z,3.72
2022-10-05T12:29:39.689Z,4.57
2022-10-05T12:34:01.844Z,5.22
2022-10-05T12:38:17.368Z,2.67
2022-10-05T12:42:30.021Z,4.05
2022-10-05T12:47:02.129Z,2.65
2022-10-05T12:51:16.781Z,3.55
2022-10-05T12:55:27.460Z,2.20
2022-10-05T12:59:44.409Z,5.30
2022-10-05T13:03:51.339Z,3.40
2022-10-05T13:08:12.856Z,3.05
2022-10-05T13:12:38.985Z,3.63
2022-10-05T13:16:55.831Z,3.20
2022-10-05T13:21:18.571Z,3.70
2022-10-05T13:25:29.058Z,2.22
2022-10-05T13:29:58.837Z,2.67
2022-10-05T13:34:08.124Z,2.25
2022-10-05T13:38:28.977Z,3.90
2022-10-05T13:42:42.968Z,3.42
2022-10-05T13:46:58.749Z,4.45
2022-10-05T13:51:18.380Z,2.58
2022-10-05T13:55:51.984Z,3.20
2022-10-05T13:59:58.076Z,3.47
2022-10-05T14:04:24.490Z,2.97
2022-10-05T14:08:36.571Z,2.22
2022-10-05T14:12:45.686Z,2.20
2022-10-05T14:16:53.774Z,2.58
2022-10-05T14:21:17.011Z,1.88
2022-10-05T14:25:19.886Z,2.25
2022-10-05T14:29:38.267Z,2.83
2022-10-05T14:33:40.784Z,2.20
2022-10-05T14:38:02.384Z,2.33
2022-10-05T14:42:15.191Z,2.95
2022-10-05T14:46:20.672Z,3.28
2022-10-05T14:50:29.412Z,3.42
2022-10-05T14:54:57.353Z,2.47
2022-10-05T15:03:31.246Z,2.60
2022-10-05T15:07:39.638Z,3.35
2022-10-05T15:11:46.510Z,2.28
2022-10-05T15:15:57.714Z,3.55
2022-10-05T15:20:10.421Z,3.50
2022-10-05T15:24:26.342Z,2.95
2022-10-05T15:28:34.585Z,3.80
2022-10-05T15:32:43.070Z,1.88
2022-10-05T15:37:16.763Z,2.35
2022-10-05T15:41:40.282Z,2.28
2022-10-05T15:46:10.429Z,4.50
2022-10-05T15:50:12.537Z,2.17
2022-10-05T15:54:41.766Z,3.80
2022-10-05T15:58:55.437Z,4.75
2022-10-05T16:03:18.952Z,3.00
2022-10-05T16:07:46.457Z,3.88
2022-10-05T16:12:09.786Z,1.67
2022-10-05T16:16:24.830Z,3.80
2022-10-05T16:21:14.036Z,2.33
2022-10-05T16:25:31.409Z,4.88
2022-10-05T16:29:52.590Z,6.00
2022-10-05T16:34:17.182Z,4.22
2022-10-05T16:39:07.447Z,3.67
2022-10-05T16:43:45.924Z,2.97
2022-10-05T16:48:08.853Z,4.90
2022-10-05T16:52:18.132Z,3.75
2022-10-05T16:56:25.241Z,4.13
2022-10-05T17:00:39.514Z,2.58
2022-10-05T17:05:03.312Z,6.53
2022-10-05T17:09:32.967Z,2.03
2022-10-05T17:13:57.149Z,2.90
2022-10-05T17:18:06.706Z,1.40
2022-10-05T17:22:18.140Z,2.50
2022-10-05T17:26:22.861Z,3.13
2022-10-05T17:31:06.038Z,2.05
2022-10-05T17:35:18.911Z,2.08
2022-10-05T17:39:23.217Z,1.35
2022-10-05T17:43:28.427Z,2.35
2022-10-05T17:47:55.510Z,3.10
2022-10-05T17:52:17.725Z,1.63
2022-10-05T17:56:22.029Z,1.63
2022-10-05T18:00:41.879Z,1.67
2022-10-05T18:04:51.463Z,2.63
2022-10-05T18:09:20.880Z,1.70
2022-10-05T18:13:36.802Z,3.05
2022-10-05T18:17:57.251Z,1.75
2022-10-05T18:22:00.862Z,2.15
2022-10-05T18:26:20.245Z,1.58
2022-10-05T18:30:24.948Z,1.90
2022-10-05T18:34:36.893Z,3.17
2022-10-05T18:38:52.834Z,4.07
2022-10-05T18:43:50.990Z,1.92
2022-10-05T18:48:19.531Z,2.03
2022-10-05T18:52:47.117Z,2.67
2022-10-05T18:56:50.800Z,2.25
2022-10-05T19:01:04.863Z,1.20
2022-10-05T19:05:48.717Z,2.08
2022-10-05T19:10:08.827Z,4.80
2022-10-05T19:14:21.432Z,2.83
2022-10-05T19:18:39.804Z,2.65
2022-10-05T19:23:12.818Z,3.70
2022-10-05T19:27:46.447Z,2.00
2022-10-05T19:31:55.015Z,1.98
2022-10-05T19:36:02.767Z,2.92
2022-10-05T19:40:15.897Z,3.88
2022-10-05T19:44:36.195Z,2.60
2022-10-05T19:48:44.402Z,2.53
2022-10-05T19:52:51.965Z,3.78
2022-10-05T19:56:55.017Z,2.97
2022-10-05T20:01:06.741Z,5.30
2022-10-05T20:05:08.942Z,3.22
2022-10-05T20:09:21.586Z,2.88
2022-10-05T20:13:23.601Z,3.08
2022-10-05T20:17:45.942Z,2.97
2022-10-05T20:21:50.993Z,5.22
2022-10-05T20:26:11.520Z,1.80
2022-10-05T20:30:19.115Z,2.90
2022-10-05T20:34:22.102Z,6.82
2022-10-05T20:38:24.382Z,5.40
2022-10-05T20:42:26.692Z,4.88
2022-10-05T20:46:30.928Z,5.78
2022-10-05T20:50:33.146Z,3.35
2022-10-05T20:54:36.397Z,6.72
2022-10-05T20:58:38.507Z,5.75
2022-10-05T21:02:40.621Z,4.45
2022-10-05T21:06:43.682Z,4.72
2022-10-05T21:10:45.711Z,3.17
2022-10-05T21:14:47.791Z,5.43
2022-10-05T21:18:49.837Z,2.78
2022-10-05T21:22:51.836Z,7.25
2022-10-05T21:26:56.737Z,2.90
2022-10-05T21:30:58.780Z,3.13
2022-10-05T21:35:00.772Z,3.00
2022-10-05T21:39:02.949Z,4.13
2022-10-05T21:43:05.048Z,3.55
2022-10-05T21:47:07.101Z,3.28
2022-10-05T21:51:13.325Z,3.53
2022-10-05T21:55:16.714Z,4.82
2022-10-05T21:59:22.059Z,3.13
2022-10-05T22:03:24.180Z,1.95
2022-10-05T22:07:26.265Z,5.32
2022-10-05T22:11:29.055Z,3.40
2022-10-05T22:15:31.661Z,8.40
2022-10-05T22:19:33.668Z,6.57
2022-10-05T22:23:35.957Z,2.58
2022-10-05T22:27:38.183Z,3.60
2022-10-05T22:31:40.601Z,3.67
2022-10-05T22:35:43.037Z,3.97
2022-10-05T22:39:45.070Z,4.85
2022-10-05T22:43:49.903Z,4.70
2022-10-05T22:47:52.008Z,4.03
2022-10-05T22:51:54.845Z,5.28
2022-10-05T22:55:56.918Z,2.88
2022-10-05T22:59:58.876Z,3.92
2022-10-05T23:04:01.233Z,2.47
2022-10-05T23:08:04.263Z,3.70
2022-10-05T23:12:06.434Z,2.88
2022-10-05T23:16:11.145Z,1.52
2022-10-05T23:20:13.269Z,1.55
2022-10-05T23:24:15.318Z,2.88
2022-10-05T23:28:17.808Z,2.58
2022-10-05T23:32:19.852Z,2.33
2022-10-05T23:36:32.744Z,5.90
2022-10-05T23:40:34.739Z,4.05
2022-10-05T23:44:36.734Z,3.38
2022-10-05T23:48:39.536Z,3.20
2022-10-05T23:52:41.512Z,4.28
2022-10-05T23:56:43.530Z,3.33
